sensor_id;sensor_type;location;lat;lon;timestamp;pressure;altitude;pressure_sealevel;temperature;humidity
76260;BME280;65076;52.362;6.588;2023-06-19T00:01:52;100761.09;;;25.74;38.12
76260;BME280;65076;52.362;6.588;2023-06-19T00:04:20;100755.19;;;25.77;38.17
76260;BME280;65076;52.362;6.588;2023-06-19T00:06:50;100761.97;;;25.75;39.01
76260;BME280;65076;52.362;6.588;2023-06-19T00:09:19;100766.81;;;25.72;39.03
76260;BME280;65076;52.362;6.588;2023-06-19T00:11:47;100781.53;;;25.73;39.09
76260;BME280;65076;52.362;6.588;2023-06-19T00:14:15;100775.50;;;25.69;39.23
76260;BME280;65076;52.362;6.588;2023-06-19T00:16:44;100773.22;;;25.73;39.30
76260;BME280;65076;52.362;6.588;2023-06-19T00:19:12;100782.06;;;25.77;39.75
76260;BME280;65076;52.362;6.588;2023-06-19T00:21:40;100764.56;;;25.84;39.43
76260;BME280;65076;52.362;6.588;2023-06-19T00:24:10;100764.19;;;25.87;39.60
76260;BME280;65076;52.362;6.588;2023-06-19T00:26:38;100759.69;;;25.94;39.65
76260;BME280;65076;52.362;6.588;2023-06-19T00:29:07;100766.81;;;25.72;39.80
76260;BME280;65076;52.362;6.588;2023-06-19T00:31:34;100767.16;;;25.61;40.22
76260;BME280;65076;52.362;6.588;2023-06-19T00:34:03;100757.09;;;25.60;40.43
76260;BME280;65076;52.362;6.588;2023-06-19T00:36:31;100760.91;;;25.84;40.24
76260;BME280;65076;52.362;6.588;2023-06-19T00:39:07;100755.34;;;25.76;40.25
76260;BME280;65076;52.362;6.588;2023-06-19T00:41:37;100758.16;;;25.84;40.14
76260;BME280;65076;52.362;6.588;2023-06-19T00:44:05;100752.59;;;25.76;40.56
76260;BME280;65076;52.362;6.588;2023-06-19T00:46:35;100754.16;;;25.62;41.36
76260;BME280;65076;52.362;6.588;2023-06-19T00:49:08;100755.22;;;25.85;40.70
76260;BME280;65076;52.362;6.588;2023-06-19T00:51:36;100756.00;;;25.21;42.55
76260;BME280;65076;52.362;6.588;2023-06-19T00:54:05;100759.81;;;25.44;41.84
76260;BME280;65076;52.362;6.588;2023-06-19T00:56:37;100752.59;;;25.67;41.32
76260;BME280;65076;52.362;6.588;2023-06-19T00:59:11;100759.16;;;25.42;42.46
76260;BME280;65076;52.362;6.588;2023-06-19T01:01:43;100759.88;;;25.68;42.00
76260;BME280;65076;52.362;6.588;2023-06-19T01:04:12;100770.59;;;25.55;42.28
76260;BME280;65076;52.362;6.588;2023-06-19T01:06:45;100761.91;;;25.42;42.70
76260;BME280;65076;52.362;6.588;2023-06-19T01:09:20;100772.97;;;25.26;42.79
76260;BME280;65076;52.362;6.588;2023-06-19T01:11:55;100772.63;;;25.21;43.34
76260;BME280;65076;52.362;6.588;2023-06-19T01:14:34;100770.22;;;25.50;42.52
76260;BME280;65076;52.362;6.588;2023-06-19T01:17:05;100771.81;;;25.61;42.31
76260;BME280;65076;52.362;6.588;2023-06-19T01:19:34;100758.78;;;25.45;42.39
76260;BME280;65076;52.362;6.588;2023-06-19T01:22:04;100757.06;;;25.44;42.53
76260;BME280;65076;52.362;6.588;2023-06-19T01:24:33;100760.16;;;25.25;43.69
76260;BME280;65076;52.362;6.588;2023-06-19T01:27:01;100768.81;;;25.30;43.98
76260;BME280;65076;52.362;6.588;2023-06-19T01:29:29;100761.00;;;25.09;45.08
76260;BME280;65076;52.362;6.588;2023-06-19T01:32:01;100766.72;;;25.16;44.99
76260;BME280;65076;52.362;6.588;2023-06-19T01:34:34;100773.84;;;25.35;44.82
76260;BME280;65076;52.362;6.588;2023-06-19T01:37:10;100769.19;;;25.27;45.08
76260;BME280;65076;52.362;6.588;2023-06-19T01:39:40;100775.22;;;25.39;45.14
76260;BME280;65076;52.362;6.588;2023-06-19T01:42:08;100780.78;;;25.30;45.09
76260;BME280;65076;52.362;6.588;2023-06-19T01:44:38;100780.53;;;25.08;46.34
76260;BME280;65076;52.362;6.588;2023-06-19T01:47:11;100784.00;;;25.10;46.14
76260;BME280;65076;52.362;6.588;2023-06-19T01:49:39;100779.00;;;25.05;46.46
76260;BME280;65076;52.362;6.588;2023-06-19T01:52:09;100786.25;;;24.72;47.18
76260;BME280;65076;52.362;6.588;2023-06-19T01:54:37;100782.22;;;24.93;47.44
76260;BME280;65076;52.362;6.588;2023-06-19T01:57:05;100784.47;;;24.89;47.10
76260;BME280;65076;52.362;6.588;2023-06-19T01:59:34;100788.63;;;24.93;47.31
76260;BME280;65076;52.362;6.588;2023-06-19T02:02:02;100784.22;;;24.74;47.93
76260;BME280;65076;52.362;6.588;2023-06-19T02:04:33;100783.56;;;24.80;47.80
76260;BME280;65076;52.362;6.588;2023-06-19T02:07:00;100785.09;;;24.83;47.54
76260;BME280;65076;52.362;6.588;2023-06-19T02:09:30;100785.41;;;24.72;48.02
76260;BME280;65076;52.362;6.588;2023-06-19T02:11:58;100790.78;;;24.73;48.36
76260;BME280;65076;52.362;6.588;2023-06-19T02:14:25;100789.16;;;24.97;47.75
76260;BME280;65076;52.362;6.588;2023-06-19T02:16:53;100789.25;;;24.79;48.69
76260;BME280;65076;52.362;6.588;2023-06-19T02:19:22;100792.66;;;24.73;48.34
76260;BME280;65076;52.362;6.588;2023-06-19T02:21:50;100788.78;;;24.92;48.29
76260;BME280;65076;52.362;6.588;2023-06-19T02:24:17;100789.00;;;24.98;47.84
76260;BME280;65076;52.362;6.588;2023-06-19T02:26:47;100788.63;;;24.93;48.48
76260;BME280;65076;52.362;6.588;2023-06-19T02:29:15;100790.78;;;24.73;48.74
76260;BME280;65076;52.362;6.588;2023-06-19T02:31:44;100796.47;;;24.72;48.64
76260;BME280;65076;52.362;6.588;2023-06-19T02:34:12;100802.31;;;24.35;49.67
76260;BME280;65076;52.362;6.588;2023-06-19T02:36:40;100801.31;;;24.36;50.11
76260;BME280;65076;52.362;6.588;2023-06-19T02:39:09;100809.41;;;24.63;49.22
76260;BME280;65076;52.362;6.588;2023-06-19T02:41:36;100807.44;;;24.47;50.09
76260;BME280;65076;52.362;6.588;2023-06-19T02:44:06;100801.63;;;24.67;49.72
76260;BME280;65076;52.362;6.588;2023-06-19T02:46:34;100807.16;;;24.59;49.35
76260;BME280;65076;52.362;6.588;2023-06-19T02:49:02;100811.34;;;24.71;49.25
76260;BME280;65076;52.362;6.588;2023-06-19T02:51:30;100809.19;;;24.57;49.52
76260;BME280;65076;52.362;6.588;2023-06-19T02:53:58;100825.16;;;24.63;49.80
76260;BME280;65076;52.362;6.588;2023-06-19T02:56:26;100826.38;;;24.68;49.44
76260;BME280;65076;52.362;6.588;2023-06-19T02:58:55;100822.59;;;24.69;50.04
76260;BME280;65076;52.362;6.588;2023-06-19T03:01:24;100835.50;;;24.35;50.82
76260;BME280;65076;52.362;6.588;2023-06-19T03:03:52;100838.34;;;24.17;51.33
76260;BME280;65076;52.362;6.588;2023-06-19T03:06:20;100842.81;;;24.18;51.48
76260;BME280;65076;52.362;6.588;2023-06-19T03:08:48;100835.59;;;24.17;51.25
76260;BME280;65076;52.362;6.588;2023-06-19T03:11:16;100841.44;;;23.61;52.66
76260;BME280;65076;52.362;6.588;2023-06-19T03:13:46;100841.28;;;23.80;52.16
76260;BME280;65076;52.362;6.588;2023-06-19T03:16:15;100842.31;;;23.79;52.36
76260;BME280;65076;52.362;6.588;2023-06-19T03:18:44;100843.88;;;23.82;52.00
76260;BME280;65076;52.362;6.588;2023-06-19T03:21:16;100846.19;;;23.86;52.19
76260;BME280;65076;52.362;6.588;2023-06-19T03:23:45;100848.72;;;23.62;52.75
76260;BME280;65076;52.362;6.588;2023-06-19T03:26:13;100849.81;;;23.69;52.69
76260;BME280;65076;52.362;6.588;2023-06-19T03:28:41;100852.59;;;23.42;53.37
76260;BME280;65076;52.362;6.588;2023-06-19T03:31:09;100858.22;;;23.32;53.61
76260;BME280;65076;52.362;6.588;2023-06-19T03:33:36;100863.13;;;23.38;53.60
76260;BME280;65076;52.362;6.588;2023-06-19T03:36:06;100863.34;;;23.45;53.57
76260;BME280;65076;52.362;6.588;2023-06-19T03:38:35;100871.06;;;23.23;53.60
76260;BME280;65076;52.362;6.588;2023-06-19T03:41:03;100875.97;;;23.02;54.42
76260;BME280;65076;52.362;6.588;2023-06-19T03:43:31;100878.81;;;23.10;54.51
76260;BME280;65076;52.362;6.588;2023-06-19T03:45:59;100868.78;;;23.37;53.74
76260;BME280;65076;52.362;6.588;2023-06-19T03:48:27;100871.69;;;23.17;54.20
76260;BME280;65076;52.362;6.588;2023-06-19T03:50:55;100874.63;;;23.06;54.92
76260;BME280;65076;52.362;6.588;2023-06-19T03:53:25;100879.94;;;22.90;55.31
76260;BME280;65076;52.362;6.588;2023-06-19T03:55:52;100880.44;;;23.03;55.01
76260;BME280;65076;52.362;6.588;2023-06-19T03:58:22;100873.88;;;22.77;55.60
76260;BME280;65076;52.362;6.588;2023-06-19T04:00:51;100876.72;;;22.95;55.39
76260;BME280;65076;52.362;6.588;2023-06-19T04:03:19;100871.53;;;22.82;55.70
76260;BME280;65076;52.362;6.588;2023-06-19T04:05:47;100874.66;;;22.60;56.31
76260;BME280;65076;52.362;6.588;2023-06-19T04:08:15;100886.56;;;22.60;56.63
76260;BME280;65076;52.362;6.588;2023-06-19T04:10:44;100882.63;;;22.63;56.92
76260;BME280;65076;52.362;6.588;2023-06-19T04:13:13;100884.88;;;22.50;57.07
76260;BME280;65076;52.362;6.588;2023-06-19T04:15:42;100890.69;;;22.37;57.77
76260;BME280;65076;52.362;6.588;2023-06-19T04:18:13;100899.72;;;22.20;58.36
76260;BME280;65076;52.362;6.588;2023-06-19T04:20:41;100896.78;;;22.50;57.68
76260;BME280;65076;52.362;6.588;2023-06-19T04:23:10;100901.41;;;22.40;57.77
76260;BME280;65076;52.362;6.588;2023-06-19T04:25:38;100911.56;;;22.49;57.92
76260;BME280;65076;52.362;6.588;2023-06-19T04:28:07;100915.88;;;22.61;57.60
76260;BME280;65076;52.362;6.588;2023-06-19T04:30:36;100916.19;;;22.58;57.82
76260;BME280;65076;52.362;6.588;2023-06-19T04:33:05;100918.91;;;22.68;57.93
76260;BME280;65076;52.362;6.588;2023-06-19T04:35:35;100924.78;;;22.55;58.36
76260;BME280;65076;52.362;6.588;2023-06-19T04:38:07;100925.63;;;22.46;59.07
76260;BME280;65076;52.362;6.588;2023-06-19T04:40:35;100919.47;;;22.91;57.91
76260;BME280;65076;52.362;6.588;2023-06-19T04:43:04;100927.06;;;22.60;58.77
76260;BME280;65076;52.362;6.588;2023-06-19T04:45:34;100935.16;;;22.90;58.34
76260;BME280;65076;52.362;6.588;2023-06-19T04:48:02;100926.63;;;23.11;57.92
76260;BME280;65076;52.362;6.588;2023-06-19T04:50:30;100937.22;;;23.15;57.60
76260;BME280;65076;52.362;6.588;2023-06-19T04:52:59;100929.59;;;23.27;57.35
76260;BME280;65076;52.362;6.588;2023-06-19T04:55:27;100930.75;;;23.24;57.38
76260;BME280;65076;52.362;6.588;2023-06-19T04:57:55;100926.69;;;23.01;58.11
76260;BME280;65076;52.362;6.588;2023-06-19T05:00:23;100934.03;;;23.47;57.15
76260;BME280;65076;52.362;6.588;2023-06-19T05:02:53;100939.66;;;24.08;55.42
76260;BME280;65076;52.362;6.588;2023-06-19T05:05:27;100932.03;;;24.20;54.65
76260;BME280;65076;52.362;6.588;2023-06-19T05:07:55;100942.66;;;23.97;55.36
76260;BME280;65076;52.362;6.588;2023-06-19T05:10:23;100940.50;;;23.29;57.55
76260;BME280;65076;52.362;6.588;2023-06-19T05:12:51;100947.53;;;23.41;57.68
76260;BME280;65076;52.362;6.588;2023-06-19T05:15:19;100953.34;;;23.47;57.15
76260;BME280;65076;52.362;6.588;2023-06-19T05:17:48;100957.25;;;23.17;58.04
76260;BME280;65076;52.362;6.588;2023-06-19T05:20:17;100961.69;;;23.01;59.22
76260;BME280;65076;52.362;6.588;2023-06-19T05:22:46;100959.84;;;23.29;58.49
76260;BME280;65076;52.362;6.588;2023-06-19T05:25:13;100960.16;;;23.16;58.81
76260;BME280;65076;52.362;6.588;2023-06-19T05:27:42;100960.03;;;22.71;60.45
76260;BME280;65076;52.362;6.588;2023-06-19T05:30:10;100961.75;;;22.82;59.92
76260;BME280;65076;52.362;6.588;2023-06-19T05:32:39;100971.03;;;22.90;59.97
76260;BME280;65076;52.362;6.588;2023-06-19T05:35:08;100970.88;;;22.92;60.07
76260;BME280;65076;52.362;6.588;2023-06-19T05:37:41;100970.00;;;22.91;59.76
76260;BME280;65076;52.362;6.588;2023-06-19T05:40:11;100960.47;;;23.13;59.75
76260;BME280;65076;52.362;6.588;2023-06-19T05:42:39;100966.41;;;22.62;60.53
76260;BME280;65076;52.362;6.588;2023-06-19T05:45:08;100963.09;;;22.49;61.28
76260;BME280;65076;52.362;6.588;2023-06-19T05:47:37;100964.16;;;22.94;59.99
76260;BME280;65076;52.362;6.588;2023-06-19T05:50:06;100969.28;;;23.26;59.34
76260;BME280;65076;52.362;6.588;2023-06-19T05:52:34;100972.81;;;22.82;60.68
76260;BME280;65076;52.362;6.588;2023-06-19T05:55:04;100977.16;;;22.65;60.89
76260;BME280;65076;52.362;6.588;2023-06-19T05:57:33;100980.88;;;23.02;60.12
76260;BME280;65076;52.362;6.588;2023-06-19T06:00:01;100976.97;;;22.95;60.43
76260;BME280;65076;52.362;6.588;2023-06-19T06:02:32;100978.00;;;22.85;61.12
76260;BME280;65076;52.362;6.588;2023-06-19T06:05:00;100982.63;;;22.94;61.22
76260;BME280;65076;52.362;6.588;2023-06-19T06:07:39;100977.69;;;22.97;60.74
76260;BME280;65076;52.362;6.588;2023-06-19T06:10:10;100989.84;;;23.04;60.63
76260;BME280;65076;52.362;6.588;2023-06-19T06:12:38;100992.34;;;22.98;61.03
76260;BME280;65076;52.362;6.588;2023-06-19T06:15:07;100999.09;;;23.22;60.31
76260;BME280;65076;52.362;6.588;2023-06-19T06:17:35;100990.44;;;23.35;60.16
76260;BME280;65076;52.362;6.588;2023-06-19T06:20:05;101001.94;;;23.31;59.92
76260;BME280;65076;52.362;6.588;2023-06-19T06:22:39;101002.91;;;23.12;60.72
76260;BME280;65076;52.362;6.588;2023-06-19T06:25:09;101011.06;;;23.04;61.19
76260;BME280;65076;52.362;6.588;2023-06-19T06:27:42;101012.50;;;23.17;60.70
76260;BME280;65076;52.362;6.588;2023-06-19T06:30:12;101015.91;;;22.92;61.57
76260;BME280;65076;52.362;6.588;2023-06-19T06:32:42;101027.72;;;23.21;61.01
76260;BME280;65076;52.362;6.588;2023-06-19T06:35:10;101016.63;;;22.94;61.67
76260;BME280;65076;52.362;6.588;2023-06-19T06:37:39;101022.28;;;22.83;62.20
76260;BME280;65076;52.362;6.588;2023-06-19T06:40:09;101021.72;;;22.79;62.41
76260;BME280;65076;52.362;6.588;2023-06-19T06:42:38;101025.78;;;22.85;62.57
76260;BME280;65076;52.362;6.588;2023-06-19T06:45:07;101026.22;;;23.37;61.32
76260;BME280;65076;52.362;6.588;2023-06-19T06:47:36;101031.63;;;23.29;60.92
76260;BME280;65076;52.362;6.588;2023-06-19T06:50:05;101033.50;;;22.72;63.00
76260;BME280;65076;52.362;6.588;2023-06-19T06:52:34;101044.06;;;22.96;62.84
76260;BME280;65076;52.362;6.588;2023-06-19T06:55:02;101038.56;;;22.67;63.67
76260;BME280;65076;52.362;6.588;2023-06-19T06:57:32;101046.28;;;22.44;64.78
76260;BME280;65076;52.362;6.588;2023-06-19T07:00:01;101053.06;;;22.88;63.17
76260;BME280;65076;52.362;6.588;2023-06-19T07:02:30;101052.38;;;22.86;63.33
76260;BME280;65076;52.362;6.588;2023-06-19T07:04:58;101048.88;;;22.65;64.06
76260;BME280;65076;52.362;6.588;2023-06-19T07:07:26;101055.69;;;22.70;64.07
76260;BME280;65076;52.362;6.588;2023-06-19T07:09:54;101057.59;;;22.70;63.75
76260;BME280;65076;52.362;6.588;2023-06-19T07:12:22;101061.25;;;22.80;63.58
76260;BME280;65076;52.362;6.588;2023-06-19T07:14:54;101060.28;;;23.08;62.54
76260;BME280;65076;52.362;6.588;2023-06-19T07:17:23;101069.75;;;23.06;62.40
76260;BME280;65076;52.362;6.588;2023-06-19T07:19:52;101072.09;;;23.01;62.89
76260;BME280;65076;52.362;6.588;2023-06-19T07:22:21;101075.38;;;23.33;61.71
76260;BME280;65076;52.362;6.588;2023-06-19T07:24:49;101077.25;;;23.33;61.44
76260;BME280;65076;52.362;6.588;2023-06-19T07:27:17;101070.47;;;23.17;61.84
76260;BME280;65076;52.362;6.588;2023-06-19T07:29:46;101074.63;;;23.31;61.76
76260;BME280;65076;52.362;6.588;2023-06-19T07:32:15;101068.59;;;23.18;61.87
76260;BME280;65076;52.362;6.588;2023-06-19T07:34:43;101072.22;;;23.18;61.89
76260;BME280;65076;52.362;6.588;2023-06-19T07:37:11;101082.19;;;23.39;61.22
76260;BME280;65076;52.362;6.588;2023-06-19T07:39:44;101076.19;;;23.53;61.05
76260;BME280;65076;52.362;6.588;2023-06-19T07:42:12;101072.22;;;23.55;60.67
76260;BME280;65076;52.362;6.588;2023-06-19T07:44:41;101074.09;;;23.64;60.79
76260;BME280;65076;52.362;6.588;2023-06-19T07:47:09;101073.44;;;23.80;60.14
76260;BME280;65076;52.362;6.588;2023-06-19T07:49:39;101083.59;;;23.52;60.72
76260;BME280;65076;52.362;6.588;2023-06-19T07:52:07;101081.72;;;23.53;60.28
76260;BME280;65076;52.362;6.588;2023-06-19T07:54:36;101079.22;;;23.59;60.04
76260;BME280;65076;52.362;6.588;2023-06-19T07:57:15;101084.44;;;23.90;59.45
76260;BME280;65076;52.362;6.588;2023-06-19T07:59:43;101080.88;;;24.07;59.46
76260;BME280;65076;52.362;6.588;2023-06-19T08:02:12;101092.75;;;24.17;58.19
76260;BME280;65076;52.362;6.588;2023-06-19T08:04:41;101095.47;;;23.62;59.15
76260;BME280;65076;52.362;6.588;2023-06-19T08:07:09;101101.63;;;23.84;59.05
76260;BME280;65076;52.362;6.588;2023-06-19T08:09:37;101098.69;;;23.95;58.77
76260;BME280;65076;52.362;6.588;2023-06-19T08:12:06;101105.09;;;23.95;58.49
76260;BME280;65076;52.362;6.588;2023-06-19T08:14:34;101106.47;;;23.26;60.29
76260;BME280;65076;52.362;6.588;2023-06-19T08:17:02;101109.63;;;23.59;59.19
76260;BME280;65076;52.362;6.588;2023-06-19T08:19:31;101106.53;;;23.62;59.46
76260;BME280;65076;52.362;6.588;2023-06-19T08:22:01;101115.47;;;23.47;60.13
76260;BME280;65076;52.362;6.588;2023-06-19T08:24:28;101113.97;;;23.89;59.62
76260;BME280;65076;52.362;6.588;2023-06-19T08:26:57;101121.66;;;23.95;58.74
76260;BME280;65076;52.362;6.588;2023-06-19T08:29:25;101126.88;;;23.98;58.97
76260;BME280;65076;52.362;6.588;2023-06-19T08:31:53;101126.16;;;23.69;59.87
76260;BME280;65076;52.362;6.588;2023-06-19T08:34:21;101129.13;;;23.48;60.68
76260;BME280;65076;52.362;6.588;2023-06-19T08:36:49;101134.66;;;23.85;60.08
76260;BME280;65076;52.362;6.588;2023-06-19T08:39:18;101134.88;;;24.01;58.82
76260;BME280;65076;52.362;6.588;2023-06-19T08:41:48;101137.38;;;23.95;58.12
76260;BME280;65076;52.362;6.588;2023-06-19T08:44:16;101134.53;;;23.77;59.07
76260;BME280;65076;52.362;6.588;2023-06-19T08:46:44;101134.53;;;24.41;57.71
76260;BME280;65076;52.362;6.588;2023-06-19T08:49:12;101131.50;;;24.35;57.97
76260;BME280;65076;52.362;6.588;2023-06-19T08:51:41;101138.41;;;24.66;56.11
76260;BME280;65076;52.362;6.588;2023-06-19T08:54:09;101132.44;;;24.88;56.36
76260;BME280;65076;52.362;6.588;2023-06-19T08:56:38;101130.00;;;25.81;52.36
76260;BME280;65076;52.362;6.588;2023-06-19T08:59:10;101125.16;;;25.75;51.25
76260;BME280;65076;52.362;6.588;2023-06-19T09:01:39;101129.25;;;25.70;50.39
76260;BME280;65076;52.362;6.588;2023-06-19T09:04:19;101141.94;;;25.29;51.50
76260;BME280;65076;52.362;6.588;2023-06-19T09:06:50;101135.75;;;26.21;49.98
76260;BME280;65076;52.362;6.588;2023-06-19T09:09:21;101145.59;;;26.58;48.62
76260;BME280;65076;52.362;6.588;2023-06-19T09:12:02;101145.69;;;27.06;47.86
76260;BME280;65076;52.362;6.588;2023-06-19T09:14:33;101148.91;;;26.61;47.83
76260;BME280;65076;52.362;6.588;2023-06-19T09:17:02;101158.38;;;26.34;48.87
76260;BME280;65076;52.362;6.588;2023-06-19T09:19:31;101164.31;;;26.13;49.73
76260;BME280;65076;52.362;6.588;2023-06-19T09:22:01;101157.53;;;26.50;49.63
76260;BME280;65076;52.362;6.588;2023-06-19T09:24:34;101156.16;;;26.54;48.01
76260;BME280;65076;52.362;6.588;2023-06-19T09:27:08;101162.03;;;27.58;45.03
76260;BME280;65076;52.362;6.588;2023-06-19T09:29:41;101159.56;;;27.71;43.30
76260;BME280;65076;52.362;6.588;2023-06-19T09:32:16;101156.13;;;27.53;43.88
76260;BME280;65076;52.362;6.588;2023-06-19T09:34:45;101151.00;;;28.67;41.76
76260;BME280;65076;52.362;6.588;2023-06-19T09:37:15;101146.13;;;28.99;40.40
76260;BME280;65076;52.362;6.588;2023-06-19T09:39:51;101156.25;;;29.38;40.52
76260;BME280;65076;52.362;6.588;2023-06-19T09:42:26;101152.03;;;29.94;37.85
76260;BME280;65076;52.362;6.588;2023-06-19T09:45:00;101147.56;;;29.85;38.19
76260;BME280;65076;52.362;6.588;2023-06-19T09:47:32;101146.25;;;29.96;37.80
76260;BME280;65076;52.362;6.588;2023-06-19T09:50:18;101163.69;;;28.69;40.00
76260;BME280;65076;52.362;6.588;2023-06-19T09:52:55;101154.94;;;28.80;40.04
76260;BME280;65076;52.362;6.588;2023-06-19T09:55:24;101157.09;;;27.84;42.96
76260;BME280;65076;52.362;6.588;2023-06-19T09:57:57;101146.44;;;28.43;42.04
76260;BME280;65076;52.362;6.588;2023-06-19T10:00:33;101148.78;;;28.62;40.83
76260;BME280;65076;52.362;6.588;2023-06-19T10:03:03;101150.28;;;28.42;40.51
76260;BME280;65076;52.362;6.588;2023-06-19T10:05:32;101153.97;;;28.34;41.60
76260;BME280;65076;52.362;6.588;2023-06-19T10:08:02;101160.69;;;28.48;40.78
76260;BME280;65076;52.362;6.588;2023-06-19T10:10:31;101177.25;;;29.03;39.61
76260;BME280;65076;52.362;6.588;2023-06-19T10:13:13;101174.91;;;28.53;41.12
76260;BME280;65076;52.362;6.588;2023-06-19T10:15:44;101191.63;;;28.06;42.24
76260;BME280;65076;52.362;6.588;2023-06-19T10:18:15;101187.22;;;28.28;40.00
76260;BME280;65076;52.362;6.588;2023-06-19T10:20:45;101189.28;;;29.03;38.77
76260;BME280;65076;52.362;6.588;2023-06-19T10:23:18;101196.03;;;30.07;36.44
76260;BME280;65076;52.362;6.588;2023-06-19T10:25:55;101193.09;;;30.73;35.36
76260;BME280;65076;52.362;6.588;2023-06-19T10:28:29;101191.22;;;29.63;36.88
76260;BME280;65076;52.362;6.588;2023-06-19T10:31:00;101185.34;;;29.58;37.29
76260;BME280;65076;52.362;6.588;2023-06-19T10:33:31;101193.44;;;30.49;35.84
76260;BME280;65076;52.362;6.588;2023-06-19T10:36:01;101206.03;;;30.01;36.53
76260;BME280;65076;52.362;6.588;2023-06-19T10:38:41;101207.09;;;29.63;35.83
76260;BME280;65076;52.362;6.588;2023-06-19T10:41:15;101209.13;;;29.00;36.45
76260;BME280;65076;52.362;6.588;2023-06-19T10:43:54;101209.81;;;28.72;38.06
76260;BME280;65076;52.362;6.588;2023-06-19T10:46:24;101198.53;;;29.64;36.20
76260;BME280;65076;52.362;6.588;2023-06-19T10:48:57;101215.56;;;29.32;37.46
76260;BME280;65076;52.362;6.588;2023-06-19T10:51:28;101212.44;;;29.50;37.88
76260;BME280;65076;52.362;6.588;2023-06-19T10:53:57;101211.00;;;31.15;34.60
76260;BME280;65076;52.362;6.588;2023-06-19T10:56:25;101195.78;;;30.82;34.30
76260;BME280;65076;52.362;6.588;2023-06-19T10:58:59;101196.91;;;31.23;33.84
76260;BME280;65076;52.362;6.588;2023-06-19T11:01:34;101204.38;;;31.86;32.20
76260;BME280;65076;52.362;6.588;2023-06-19T11:04:06;101194.81;;;32.36;30.99
76260;BME280;65076;52.362;6.588;2023-06-19T11:06:35;101196.53;;;31.54;32.91
76260;BME280;65076;52.362;6.588;2023-06-19T11:09:04;101203.75;;;30.85;34.56
76260;BME280;65076;52.362;6.588;2023-06-19T11:11:38;101204.41;;;31.93;32.62
76260;BME280;65076;52.362;6.588;2023-06-19T11:14:11;101210.88;;;31.93;32.03
76260;BME280;65076;52.362;6.588;2023-06-19T11:16:42;101201.34;;;33.04;29.63
76260;BME280;65076;52.362;6.588;2023-06-19T11:19:15;101195.19;;;32.27;31.29
76260;BME280;65076;52.362;6.588;2023-06-19T11:21:46;101199.88;;;32.54;30.33
76260;BME280;65076;52.362;6.588;2023-06-19T11:24:16;101204.28;;;32.35;31.72
76260;BME280;65076;52.362;6.588;2023-06-19T11:26:46;101204.38;;;32.49;31.69
76260;BME280;65076;52.362;6.588;2023-06-19T11:29:22;101196.81;;;31.38;32.35
76260;BME280;65076;52.362;6.588;2023-06-19T11:31:53;101188.75;;;32.74;30.45
76260;BME280;65076;52.362;6.588;2023-06-19T11:34:33;101200.22;;;31.54;32.43
76260;BME280;65076;52.362;6.588;2023-06-19T11:37:11;101195.63;;;31.68;31.11
76260;BME280;65076;52.362;6.588;2023-06-19T11:39:41;101202.81;;;31.56;32.04
76260;BME280;65076;52.362;6.588;2023-06-19T11:42:10;101198.09;;;31.84;31.18
76260;BME280;65076;52.362;6.588;2023-06-19T11:44:53;101200.94;;;31.21;33.35
76260;BME280;65076;52.362;6.588;2023-06-19T11:47:22;101204.91;;;30.90;32.32
76260;BME280;65076;52.362;6.588;2023-06-19T11:49:50;101204.53;;;30.79;32.45
76260;BME280;65076;52.362;6.588;2023-06-19T11:52:18;101204.50;;;31.08;32.57
76260;BME280;65076;52.362;6.588;2023-06-19T11:54:46;101205.16;;;30.95;32.90
76260;BME280;65076;52.362;6.588;2023-06-19T11:57:14;101202.56;;;31.08;33.18
76260;BME280;65076;52.362;6.588;2023-06-19T11:59:42;101194.22;;;31.36;32.44
76260;BME280;65076;52.362;6.588;2023-06-19T12:02:12;101199.97;;;31.28;32.34
76260;BME280;65076;52.362;6.588;2023-06-19T12:04:40;101202.63;;;31.00;33.32
76260;BME280;65076;52.362;6.588;2023-06-19T12:07:08;101215.28;;;30.31;34.25
76260;BME280;65076;52.362;6.588;2023-06-19T12:09:38;101204.75;;;31.13;33.11
76260;BME280;65076;52.362;6.588;2023-06-19T12:12:07;101206.47;;;31.35;32.48
76260;BME280;65076;52.362;6.588;2023-06-19T12:14:36;101203.31;;;31.87;30.95
76260;BME280;65076;52.362;6.588;2023-06-19T12:17:03;101208.09;;;31.23;32.40
76260;BME280;65076;52.362;6.588;2023-06-19T12:19:33;101202.28;;;30.89;33.11
76260;BME280;65076;52.362;6.588;2023-06-19T12:22:03;101197.44;;;31.82;32.13
76260;BME280;65076;52.362;6.588;2023-06-19T12:24:31;101194.72;;;31.19;31.73
76260;BME280;65076;52.362;6.588;2023-06-19T12:26:59;101196.75;;;31.52;30.54
76260;BME280;65076;52.362;6.588;2023-06-19T12:29:27;101201.03;;;32.04;30.04
76260;BME280;65076;52.362;6.588;2023-06-19T12:32:00;101202.53;;;31.51;30.44
76260;BME280;65076;52.362;6.588;2023-06-19T12:34:29;101198.06;;;30.78;31.03
76260;BME280;65076;52.362;6.588;2023-06-19T12:36:58;101199.66;;;31.87;30.84
76260;BME280;65076;52.362;6.588;2023-06-19T12:39:26;101200.47;;;31.81;29.71
76260;BME280;65076;52.362;6.588;2023-06-19T12:41:55;101206.31;;;32.48;30.07
76260;BME280;65076;52.362;6.588;2023-06-19T12:44:23;101207.75;;;31.75;31.26
76260;BME280;65076;52.362;6.588;2023-06-19T12:46:51;101208.09;;;31.23;31.91
76260;BME280;65076;52.362;6.588;2023-06-19T12:49:19;101204.50;;;31.08;31.99
76260;BME280;65076;52.362;6.588;2023-06-19T12:51:47;101210.41;;;31.41;31.18
76260;BME280;65076;52.362;6.588;2023-06-19T12:54:19;101211.78;;;31.73;30.44
76260;BME280;65076;52.362;6.588;2023-06-19T12:56:47;101216.81;;;30.99;31.81
76260;BME280;65076;52.362;6.588;2023-06-19T12:59:19;101217.88;;;31.12;31.52
76260;BME280;65076;52.362;6.588;2023-06-19T13:01:47;101222.09;;;30.72;31.87
76260;BME280;65076;52.362;6.588;2023-06-19T13:04:15;101205.66;;;32.53;30.25